createdAt,value
2023-03-07T00:00:17.528Z,21.13
2023-03-07T00:02:44.745Z,22.02
2023-03-07T00:05:14.065Z,20.48
2023-03-07T00:07:41.411Z,25.42
2023-03-07T00:10:10.072Z,18.95
2023-03-07T00:17:31.943Z,19.42
2023-03-07T00:19:59.079Z,22.30
2023-03-07T00:22:26.251Z,20.98
2023-03-07T00:24:53.429Z,21.45
2023-03-07T00:27:20.697Z,20.23
2023-03-07T00:29:50.263Z,22.02
2023-03-07T00:32:17.775Z,22.25
2023-03-07T00:34:44.954Z,24.83
2023-03-07T00:37:12.312Z,23.52
2023-03-07T00:39:39.622Z,24.65
2023-03-07T00:42:06.823Z,28.13
2023-03-07T00:44:34.403Z,26.83
2023-03-07T00:47:02.448Z,26.55
2023-03-07T00:49:30.659Z,25.98
2023-03-07T00:51:58.224Z,24.10
2023-03-07T00:54:26.198Z,31.27
2023-03-07T00:56:53.347Z,24.10
2023-03-07T00:59:20.637Z,25.83
2023-03-07T01:01:47.901Z,25.52
2023-03-07T01:04:15.169Z,27.48
2023-03-07T01:06:42.324Z,29.33
2023-03-07T01:09:11.165Z,25.70
2023-03-07T01:11:39.300Z,21.98
2023-03-07T01:14:06.993Z,22.85
2023-03-07T01:16:38.350Z,26.25
2023-03-07T01:19:12.387Z,22.85
2023-03-07T01:21:43.380Z,27.75
2023-03-07T01:24:15.094Z,23.40
2023-03-07T01:26:43.125Z,23.30
2023-03-07T01:29:11.891Z,21.67
2023-03-07T01:31:39.726Z,26.35
2023-03-07T01:34:07.990Z,20.00
2023-03-07T01:36:37.566Z,23.05
2023-03-07T01:39:14.365Z,30.75
2023-03-07T01:42:02.183Z,25.08
2023-03-07T01:44:30.706Z,23.05
2023-03-07T01:47:00.646Z,19.80
2023-03-07T01:49:42.774Z,25.58
2023-03-07T01:52:18.346Z,23.58
2023-03-07T01:54:55.195Z,21.58
2023-03-07T01:57:32.689Z,25.45
2023-03-07T02:00:11.224Z,21.80
2023-03-07T02:02:46.199Z,19.45
2023-03-07T02:05:29.343Z,22.45
2023-03-07T02:08:00.680Z,24.27
2023-03-07T02:10:32.797Z,22.95
2023-03-07T02:13:00.547Z,22.05
2023-03-07T02:15:28.190Z,20.98
2023-03-07T02:18:01.343Z,20.98
2023-03-07T02:20:59.784Z,23.15
2023-03-07T02:23:50.227Z,21.77
2023-03-07T02:26:32.479Z,26.20
2023-03-07T02:29:03.991Z,20.60
2023-03-07T02:31:32.868Z,22.10
2023-03-07T02:34:00.565Z,24.80
2023-03-07T02:36:37.404Z,25.30
2023-03-07T02:39:24.062Z,21.83
2023-03-07T02:41:55.382Z,25.23
2023-03-07T02:44:30.699Z,20.83
2023-03-07T02:46:57.956Z,23.60
2023-03-07T02:49:27.983Z,20.42
2023-03-07T02:51:58.343Z,21.92
2023-03-07T02:54:28.618Z,24.17
2023-03-07T02:56:56.410Z,22.63
2023-03-07T02:59:23.698Z,20.75
2023-03-07T03:01:51.464Z,23.27
2023-03-07T03:04:19.101Z,22.30
2023-03-07T03:06:46.349Z,19.83
2023-03-07T03:09:14.373Z,25.65
2023-03-07T03:11:41.650Z,21.83
2023-03-07T03:14:09.059Z,23.85
2023-03-07T03:16:36.440Z,22.95
2023-03-07T03:19:03.780Z,24.30
2023-03-07T03:21:31.365Z,22.00
2023-03-07T03:24:14.238Z,27.27
2023-03-07T03:26:46.505Z,28.48
2023-03-07T03:29:14.803Z,24.05
2023-03-07T03:31:42.204Z,27.83
2023-03-07T03:34:09.605Z,24.58
2023-03-07T03:36:37.004Z,22.20
2023-03-07T03:39:10.902Z,25.30
2023-03-07T03:41:47.165Z,21.77
2023-03-07T03:44:16.046Z,22.33
2023-03-07T03:46:43.492Z,24.08
2023-03-07T03:49:13.460Z,19.48
2023-03-07T03:51:41.550Z,22.65
2023-03-07T03:54:09.117Z,25.13
2023-03-07T03:56:37.375Z,23.27
2023-03-07T03:59:04.929Z,23.77
2023-03-07T04:01:32.292Z,25.25
2023-03-07T04:04:01.569Z,25.38
2023-03-07T04:06:33.744Z,23.30
2023-03-07T04:09:03.496Z,22.50
2023-03-07T04:11:32.433Z,20.13
2023-03-07T04:13:59.917Z,19.88
2023-03-07T04:16:27.780Z,23.58
2023-03-07T04:18:55.435Z,24.67
2023-03-07T04:21:23.148Z,21.88
2023-03-07T04:23:55.869Z,22.65
2023-03-07T04:26:24.935Z,23.55
2023-03-07T04:28:52.768Z,25.25
2023-03-07T04:31:32.038Z,20.80
2023-03-07T04:34:01.523Z,23.20
2023-03-07T04:36:29.462Z,24.20
2023-03-07T04:38:56.606Z,26.73
2023-03-07T04:41:28.244Z,21.17
2023-03-07T04:44:02.409Z,21.15
2023-03-07T04:46:29.999Z,29.40
2023-03-07T04:48:57.203Z,22.25
2023-03-07T04:51:25.142Z,27.27
2023-03-07T04:53:52.420Z,22.17
2023-03-07T04:56:19.727Z,25.10
2023-03-07T04:58:47.994Z,23.65
2023-03-07T05:01:17.633Z,24.40
2023-03-07T05:03:45.182Z,21.65
2023-03-07T05:06:16.236Z,23.67
2023-03-07T05:08:47.817Z,23.05
2023-03-07T05:11:15.161Z,24.77
2023-03-07T05:13:42.590Z,23.02
2023-03-07T05:16:10.338Z,24.27
2023-03-07T05:18:37.743Z,24.20
2023-03-07T05:21:05.575Z,27.92
2023-03-07T05:23:33.169Z,25.27
2023-03-07T05:26:00.438Z,25.92
2023-03-07T05:28:27.699Z,21.85
2023-03-07T05:30:54.886Z,23.75
2023-03-07T05:33:22.471Z,24.73
2023-03-07T05:35:49.696Z,22.67
2023-03-07T05:38:18.015Z,18.88
2023-03-07T05:40:45.713Z,21.17
2023-03-07T05:43:14.123Z,21.95
2023-03-07T05:45:41.309Z,21.92
2023-03-07T05:48:08.531Z,22.92
2023-03-07T05:50:38.968Z,22.27
2023-03-07T05:53:06.595Z,22.85
2023-03-07T05:55:34.759Z,21.70
2023-03-07T05:58:02.339Z,21.05
2023-03-07T06:00:29.787Z,23.20
2023-03-07T06:03:05.272Z,22.98
2023-03-07T06:05:33.528Z,23.42
2023-03-07T06:08:00.958Z,26.30
2023-03-07T06:10:28.307Z,20.00
2023-03-07T06:12:55.928Z,22.15
2023-03-07T06:15:24.690Z,20.98
2023-03-07T06:17:57.326Z,21.98
2023-03-07T06:20:24.999Z,20.55
2023-03-07T06:22:54.616Z,18.02
2023-03-07T06:25:22.366Z,24.30
2023-03-07T06:27:50.365Z,22.58
2023-03-07T06:30:17.900Z,24.27
2023-03-07T06:32:45.576Z,17.20
2023-03-07T06:35:13.031Z,23.55
2023-03-07T06:37:40.291Z,21.83
2023-03-07T06:40:10.754Z,21.42
2023-03-07T06:42:39.548Z,21.42
2023-03-07T06:45:08.524Z,21.58
2023-03-07T06:47:35.982Z,24.02
2023-03-07T06:52:33.773Z,17.75
2023-03-07T06:55:01.288Z,22.25
2023-03-07T06:57:30.280Z,23.42
2023-03-07T06:59:57.451Z,21.80
2023-03-07T07:02:25.007Z,19.33
2023-03-07T07:04:52.366Z,25.10
2023-03-07T07:07:19.618Z,23.15
2023-03-07T07:09:46.867Z,19.63
2023-03-07T07:12:14.233Z,21.90
2023-03-07T07:14:41.429Z,20.67
2023-03-07T07:17:09.060Z,21.45
2023-03-07T07:19:36.429Z,20.58
2023-03-07T07:22:04.086Z,23.23
2023-03-07T07:24:31.218Z,22.02
2023-03-07T07:26:58.937Z,19.65
2023-03-07T07:29:26.436Z,22.75
2023-03-07T07:31:54.796Z,21.38
2023-03-07T07:34:22.911Z,24.08
2023-03-07T07:36:52.182Z,28.65
2023-03-07T07:41:47.958Z,22.70
2023-03-07T07:44:16.795Z,18.33
2023-03-07T07:46:54.141Z,24.13
2023-03-07T07:49:21.450Z,22.50
2023-03-07T07:51:48.658Z,20.67
2023-03-07T07:54:15.932Z,24.48
2023-03-07T07:56:43.429Z,27.05
2023-03-07T07:59:10.917Z,24.40
2023-03-07T08:01:38.237Z,23.27
2023-03-07T08:04:05.707Z,24.33
2023-03-07T08:06:32.922Z,25.85
2023-03-07T08:09:00.916Z,23.27
2023-03-07T08:11:28.163Z,27.63
2023-03-07T08:13:55.935Z,25.48
2023-03-07T08:16:24.217Z,25.25
2023-03-07T08:18:58.346Z,32.47
2023-03-07T08:21:26.535Z,26.45
2023-03-07T08:23:55.788Z,21.75
2023-03-07T08:26:23.672Z,25.80
2023-03-07T08:28:51.161Z,23.02
2023-03-07T08:31:25.960Z,26.90
2023-03-07T08:33:53.862Z,22.13
2023-03-07T08:36:21.213Z,27.55
2023-03-07T08:38:51.558Z,23.05
2023-03-07T08:41:21.879Z,25.30
2023-03-07T08:43:49.233Z,24.33
2023-03-07T08:46:17.032Z,26.15
2023-03-07T08:48:44.432Z,25.35
2023-03-07T08:51:17.319Z,26.92
2023-03-07T08:53:46.192Z,24.08
2023-03-07T08:56:18.833Z,21.58
2023-03-07T08:58:46.487Z,25.63
2023-03-07T09:01:13.838Z,29.05
2023-03-07T09:03:42.675Z,26.42
2023-03-07T09:06:18.825Z,24.90
2023-03-07T09:08:47.419Z,22.92
2023-03-07T09:11:15.806Z,22.80
2023-03-07T09:13:52.035Z,22.25
2023-03-07T09:16:21.146Z,27.48
2023-03-07T09:18:48.383Z,23.45
2023-03-07T09:21:15.640Z,26.52
2023-03-07T09:23:44.083Z,26.58
2023-03-07T09:28:38.372Z,24.98
2023-03-07T09:31:12.863Z,22.65
2023-03-07T09:36:12.462Z,25.63
2023-03-07T09:38:40.586Z,26.17
2023-03-07T09:41:49.976Z,25.90
2023-03-07T09:44:50.293Z,24.38
2023-03-07T09:48:15.531Z,25.65
2023-03-07T09:51:18.809Z,21.48
2023-03-07T09:53:57.679Z,22.38
2023-03-07T09:56:41.033Z,26.67
2023-03-07T09:59:23.917Z,17.00
2023-03-07T10:02:18.786Z,17.27
2023-03-07T10:05:28.806Z,18.60
2023-03-07T10:07:56.367Z,19.27
2023-03-07T10:10:30.495Z,20.10
2023-03-07T10:13:28.760Z,17.77
2023-03-07T10:16:05.581Z,19.77
2023-03-07T10:19:10.490Z,20.25
2023-03-07T10:22:36.531Z,19.95
2023-03-07T10:25:58.794Z,23.92
2023-03-07T10:28:33.710Z,22.67
2023-03-07T10:31:33.342Z,22.85
2023-03-07T10:34:15.571Z,23.38
2023-03-07T10:37:07.697Z,24.73
2023-03-07T10:39:56.190Z,18.83
2023-03-07T10:42:29.822Z,22.65
2023-03-07T10:44:57.202Z,19.45
2023-03-07T10:47:28.261Z,22.40
2023-03-07T10:50:19.147Z,20.77
2023-03-07T10:52:53.742Z,18.10
2023-03-07T10:58:26.988Z,16.55
2023-03-07T11:01:16.260Z,19.48
2023-03-07T11:03:59.973Z,15.63
2023-03-07T11:06:44.643Z,16.75
2023-03-07T11:09:25.801Z,15.38
2023-03-07T11:12:05.150Z,18.60
2023-03-07T11:14:58.060Z,21.75
2023-03-07T11:17:47.586Z,17.98
2023-03-07T11:20:49.416Z,17.83
2023-03-07T11:23:32.281Z,19.33
2023-03-07T11:26:22.570Z,18.05
2023-03-07T11:29:13.179Z,19.15
2023-03-07T11:31:59.525Z,15.65
2023-03-07T11:35:13.150Z,17.30
2023-03-07T11:38:00.615Z,17.83
2023-03-07T11:41:21.177Z,14.57
2023-03-07T11:44:23.658Z,15.77
2023-03-07T11:47:12.555Z,16.48
2023-03-07T11:50:13.566Z,12.95
2023-03-07T11:53:18.433Z,14.45
2023-03-07T11:56:18.316Z,16.35
2023-03-07T11:59:45.102Z,16.88
2023-03-07T12:03:08.370Z,16.67
2023-03-07T12:08:47.466Z,15.00
2023-03-07T12:11:23.187Z,16.88
2023-03-07T12:14:26.311Z,16.00
2023-03-07T12:17:28.732Z,15.52
2023-03-07T12:20:23.016Z,14.10
2023-03-07T12:23:39.134Z,17.58
2023-03-07T12:26:55.174Z,10.85
2023-03-07T12:29:44.750Z,10.50
2023-03-07T12:32:28.185Z,11.27
2023-03-07T12:35:41.518Z,13.18
2023-03-07T12:38:36.637Z,11.23
2023-03-07T12:41:48.924Z,13.68
2023-03-07T12:44:44.475Z,8.65
2023-03-07T12:47:44.130Z,11.07
2023-03-07T12:51:16.307Z,8.73
2023-03-07T12:54:27.673Z,14.32
2023-03-07T12:57:19.964Z,7.70
2023-03-07T12:59:50.692Z,12.07
2023-03-07T13:02:28.315Z,13.68
2023-03-07T13:04:56.853Z,16.45
2023-03-07T13:07:33.473Z,11.82
2023-03-07T13:10:06.279Z,9.30
2023-03-07T13:12:38.312Z,12.45
2023-03-07T13:15:20.912Z,11.13
2023-03-07T13:17:47.980Z,10.95
2023-03-07T13:20:42.144Z,11.55
2023-03-07T13:23:26.987Z,11.25
2023-03-07T13:26:07.478Z,10.55
2023-03-07T13:28:45.406Z,9.88
2023-03-07T13:31:15.508Z,14.18
2023-03-07T13:33:43.502Z,11.00
2023-03-07T13:36:38.591Z,8.02
2023-03-07T13:39:38.695Z,9.45
2023-03-07T13:42:46.338Z,12.02
2023-03-07T13:45:37.958Z,11.55
2023-03-07T13:48:19.992Z,10.85
2023-03-07T13:50:53.033Z,8.35
2023-03-07T13:53:53.416Z,11.52
2023-03-07T13:56:29.680Z,10.48
2023-03-07T13:59:27.550Z,13.35
2023-03-07T14:02:12.664Z,12.48
2023-03-07T14:05:02.057Z,11.68
2023-03-07T14:07:39.820Z,10.35
2023-03-07T14:10:26.765Z,13.38
2023-03-07T14:13:14.064Z,9.85
2023-03-07T14:16:25.476Z,10.82
2023-03-07T14:19:46.348Z,11.80
2023-03-07T14:22:19.446Z,16.80
2023-03-07T14:25:15.515Z,12.95
2023-03-07T14:28:17.513Z,11.20
2023-03-07T14:30:59.931Z,12.00
2023-03-07T14:33:39.534Z,11.63
2023-03-07T14:36:27.901Z,13.10
2023-03-07T14:39:04.169Z,10.85
2023-03-07T14:42:20.927Z,14.65
2023-03-07T14:45:18.955Z,11.77
2023-03-07T14:49:05.595Z,11.68
2023-03-07T14:51:35.542Z,11.20
2023-03-07T14:54:14.935Z,13.50
2023-03-07T14:56:42.793Z,12.68
2023-03-07T14:59:27.612Z,10.05
2023-03-07T15:01:56.639Z,14.30
2023-03-07T15:07:11.364Z,15.23
2023-03-07T15:09:39.820Z,11.93
2023-03-07T15:12:18.022Z,11.70
2023-03-07T15:14:52.320Z,13.93
2023-03-07T15:17:27.162Z,11.38
2023-03-07T15:20:17.155Z,10.20
2023-03-07T15:22:44.428Z,9.85
2023-03-07T15:25:22.651Z,16.48
2023-03-07T15:28:16.682Z,14.90
2023-03-07T15:30:53.209Z,10.88
2023-03-07T15:33:20.646Z,14.02
2023-03-07T15:36:11.947Z,16.13
2023-03-07T15:38:49.210Z,13.77
2023-03-07T15:41:33.942Z,17.65
2023-03-07T15:44:27.718Z,13.48
2023-03-07T15:46:59.718Z,14.18
2023-03-07T15:49:46.586Z,22.00
2023-03-07T15:52:34.782Z,17.33
2023-03-07T15:55:08.190Z,15.70
2023-03-07T15:58:00.469Z,13.95
2023-03-07T16:00:36.726Z,12.65
2023-03-07T16:03:30.214Z,15.20
2023-03-07T16:06:00.848Z,15.75
2023-03-07T16:08:28.160Z,10.40
2023-03-07T16:11:07.673Z,15.85
2023-03-07T16:13:42.693Z,17.33
2023-03-07T16:16:23.738Z,17.63
2023-03-07T16:18:52.149Z,16.40
2023-03-07T16:23:47.758Z,17.77
2023-03-07T16:26:21.621Z,14.15
2023-03-07T16:28:53.704Z,14.88
2023-03-07T16:31:21.732Z,16.70
2023-03-07T16:33:49.140Z,19.02
2023-03-07T16:36:16.919Z,14.32
2023-03-07T16:38:46.368Z,16.80
2023-03-07T16:41:22.250Z,16.27
2023-03-07T16:43:58.636Z,14.85
2023-03-07T16:46:28.296Z,16.90
2023-03-07T16:48:55.519Z,16.45
2023-03-07T16:51:26.005Z,15.90
2023-03-07T16:53:53.618Z,17.02
2023-03-07T16:56:35.155Z,14.18
2023-03-07T16:59:02.778Z,15.23
2023-03-07T17:01:29.918Z,15.63
2023-03-07T17:03:57.248Z,16.95
2023-03-07T17:06:37.161Z,16.17
2023-03-07T17:09:09.399Z,16.27
2023-03-07T17:11:47.360Z,16.48
2023-03-07T17:14:17.269Z,17.77
2023-03-07T17:16:49.228Z,19.23
2023-03-07T17:19:31.248Z,20.48
2023-03-07T17:22:02.210Z,16.20
2023-03-07T17:24:30.199Z,16.85
2023-03-07T17:27:00.812Z,19.90
2023-03-07T17:30:03.087Z,18.55
2023-03-07T17:32:30.345Z,16.33
2023-03-07T17:34:57.539Z,18.83
2023-03-07T17:37:24.730Z,16.48
2023-03-07T17:39:52.004Z,19.38
2023-03-07T17:42:19.353Z,23.88
2023-03-07T17:44:46.468Z,19.83
2023-03-07T17:47:13.613Z,17.65
2023-03-07T17:49:40.812Z,15.77
2023-03-07T17:52:08.270Z,11.02
2023-03-07T17:54:35.568Z,8.48
2023-03-07T17:57:03.453Z,8.95
2023-03-07T17:59:32.553Z,11.25
2023-03-07T18:01:59.923Z,12.65
2023-03-07T18:04:31.012Z,9.57
2023-03-07T18:06:59.831Z,8.80
2023-03-07T18:09:26.993Z,9.57
2023-03-07T18:11:54.458Z,10.10
2023-03-07T18:14:21.803Z,7.53
2023-03-07T18:16:49.283Z,9.05
2023-03-07T18:19:25.685Z,11.00
2023-03-07T18:21:55.272Z,6.65
2023-03-07T18:24:29.855Z,8.32
2023-03-07T18:27:03.220Z,11.20
2023-03-07T18:29:30.749Z,7.32
2023-03-07T18:31:57.950Z,8.10
2023-03-07T18:34:25.370Z,8.23
2023-03-07T18:36:54.187Z,10.02
2023-03-07T18:39:23.550Z,9.57
2023-03-07T18:41:51.543Z,8.88
2023-03-07T18:44:19.735Z,8.82
2023-03-07T18:46:47.324Z,11.88
2023-03-07T18:49:22.885Z,9.80
2023-03-07T18:51:55.448Z,8.82
2023-03-07T18:54:26.174Z,10.80
2023-03-07T18:56:57.279Z,6.50
2023-03-07T18:59:24.927Z,9.50
2023-03-07T19:01:55.201Z,8.75
2023-03-07T19:04:25.807Z,9.90
2023-03-07T19:07:00.623Z,8.07
2023-03-07T19:09:28.448Z,11.82
2023-03-07T19:11:55.919Z,7.93
2023-03-07T19:14:29.936Z,8.43
2023-03-07T19:17:02.831Z,9.45
2023-03-07T19:19:34.803Z,10.48
2023-03-07T19:22:05.905Z,10.98
2023-03-07T19:24:38.496Z,7.28
2023-03-07T19:27:13.228Z,10.75
2023-03-07T19:29:46.849Z,6.95
2023-03-07T19:32:18.887Z,13.80
2023-03-07T19:34:50.672Z,14.30
2023-03-07T19:37:20.856Z,13.32
2023-03-07T19:39:53.227Z,10.80
2023-03-07T19:42:24.790Z,8.73
2023-03-07T19:45:05.110Z,10.23
2023-03-07T19:47:40.003Z,12.20
2023-03-07T19:50:12.338Z,9.55
2023-03-07T19:52:42.176Z,9.35
2023-03-07T19:55:12.916Z,17.85
2023-03-07T19:57:40.523Z,8.80
2023-03-07T20:00:09.664Z,13.10
2023-03-07T20:02:39.976Z,9.32
2023-03-07T20:05:10.927Z,14.60
2023-03-07T20:07:38.742Z,10.63
2023-03-07T20:10:20.414Z,10.98
2023-03-07T20:12:54.126Z,11.88
2023-03-07T20:15:30.282Z,11.68
2023-03-07T20:18:06.258Z,14.60
2023-03-07T20:20:40.038Z,11.30
2023-03-07T20:23:13.110Z,14.57
2023-03-07T20:25:42.936Z,11.70
2023-03-07T20:28:16.192Z,12.63
2023-03-07T20:30:46.152Z,10.80
2023-03-07T20:33:20.754Z,16.30
2023-03-07T20:38:43.711Z,17.35
2023-03-07T20:41:20.517Z,17.48
2023-03-07T20:44:03.945Z,22.40
2023-03-07T20:49:02.262Z,18.95
2023-03-07T20:51:38.717Z,23.02
2023-03-07T20:54:19.153Z,20.83
2023-03-07T20:56:47.955Z,23.05
2023-03-07T20:59:26.110Z,18.17
2023-03-07T21:01:56.221Z,15.70
2023-03-07T21:04:24.675Z,18.58
2023-03-07T21:06:52.159Z,18.05
2023-03-07T21:09:20.524Z,15.50
2023-03-07T21:11:59.347Z,18.13
2023-03-07T21:14:30.682Z,16.45
2023-03-07T21:16:58.303Z,13.43
2023-03-07T21:19:31.291Z,16.40
2023-03-07T21:22:02.178Z,16.30
2023-03-07T21:24:29.695Z,19.85
2023-03-07T21:26:58.426Z,17.00
2023-03-07T21:29:29.155Z,18.10
2023-03-07T21:31:56.534Z,16.92
2023-03-07T21:34:32.151Z,17.92
2023-03-07T21:36:59.663Z,22.27
2023-03-07T21:39:32.815Z,16.90
2023-03-07T21:42:03.674Z,16.88
2023-03-07T21:44:37.860Z,19.05
2023-03-07T21:47:05.597Z,18.23
2023-03-07T21:49:34.130Z,15.40
2023-03-07T21:54:35.395Z,15.93
2023-03-07T21:57:04.181Z,22.90
2023-03-07T21:59:33.560Z,18.52
2023-03-07T22:02:04.120Z,17.67
2023-03-07T22:04:34.114Z,20.42
2023-03-07T22:07:15.358Z,20.38
2023-03-07T22:09:46.141Z,17.58
2023-03-07T22:12:13.802Z,21.10
2023-03-07T22:14:41.495Z,17.00
2023-03-07T22:17:09.136Z,24.33
2023-03-07T22:19:42.842Z,18.65
2023-03-07T22:22:19.588Z,17.67
2023-03-07T22:27:24.128Z,16.63
2023-03-07T22:29:59.389Z,22.17
2023-03-07T22:32:29.770Z,19.15
2023-03-07T22:35:06.155Z,18.05
2023-03-07T22:37:36.014Z,23.08
2023-03-07T22:40:07.803Z,21.77
2023-03-07T22:42:38.328Z,20.98
2023-03-07T22:45:08.974Z,20.05
2023-03-07T22:47:38.546Z,20.17
2023-03-07T22:50:06.944Z,20.27
2023-03-07T22:52:37.337Z,22.02
2023-03-07T22:55:06.113Z,16.92
2023-03-07T22:57:34.232Z,18.98
2023-03-07T23:00:08.591Z,18.65
2023-03-07T23:02:42.817Z,20.77
2023-03-07T23:05:12.736Z,21.67
2023-03-07T23:07:43.744Z,23.05
2023-03-07T23:10:13.552Z,20.40
2023-03-07T23:12:43.781Z,20.88
2023-03-07T23:15:18.859Z,21.08
2023-03-07T23:17:55.194Z,19.50
2023-03-07T23:20:26.425Z,19.35
2023-03-07T23:22:59.370Z,23.25
2023-03-07T23:25:27.161Z,19.23
2023-03-07T23:28:03.865Z,21.92
2023-03-07T23:30:40.811Z,26.05
2023-03-07T23:33:08.574Z,18.85
2023-03-07T23:35:44.970Z,23.80
2023-03-07T23:38:20.883Z,19.45
2023-03-07T23:40:51.332Z,21.52
2023-03-07T23:43:18.937Z,19.23
2023-03-07T23:45:53.270Z,19.23
2023-03-07T23:48:21.278Z,18.80
2023-03-07T23:50:54.818Z,20.42
2023-03-07T23:53:24.544Z,20.80
2023-03-07T23:55:54.671Z,18.30
2023-03-07T23:58:24.473Z,21.63
